Airport details for: LHBP (Hungary)

Metar

LHBP 230930Z 29017KT 270V330 9999 FEW042 SCT051 10/01 Q1018 NOSIG

General details

ICAO: LHBP
IATA: BUD
Name (city): Liszt Ferenc Intl
Major:
Country: Hungary
vACC: vACC Hungary
Description:

Budapest Ferenc Liszt International Airport, formerly known as Budapest Ferihegy International Airport, is the international airport serving the Hungarian capital city of Budapest, and the largest of the country's four commercial airports. 

Budapest Liszt Ferenc International Airport is located 16 kilometres (9.9 mi) east-southeast of the centre of Budapest. The airport was renamed in honor of Ferenc Liszt, the virtuoso pianist and composer, on the occasion of the 200th anniversary of his birth. The airport offers international connections primarily within Europe, but also to Africa and the Middle East - in 2012, the airport handled 8.5 million passengers.

Scenery links:
FS9 scenery: Download
FSX/P3D scenery: Download
XP scenery:
Elevation: 496 ft.
Transition altitude: 9000 ft.
MSA: 12100 ft.
Latitude: 47.439328
Longitude: 19.261808
LHBP Charts
LHBP Notams
LHBP Online stations

Runways

Number Course Length Elevation Lat Lon ILS ILS freq ILS FAC GP
13L 128° 12162ft / 3707 m 496ft 47.445422 19.25755 109.15 128° 3.0°
13R 128° 9875ft / 3010 m 448ft 47.448706 19.220758 110.5 128° 3.0°
31L 308° 9875ft / 3010 m 448ft 47.430475 19.250247 111.5 308° 3.0°
31R 308° 12162ft / 3707 m 416ft 47.42295 19.293856 109.5 308° 3.0°